createdAt,value
2018-06-27T00:00:15.422Z,96.40
2018-06-27T00:05:08.634Z,96.60
2018-06-27T00:10:02.012Z,96.60
2018-06-27T00:14:55.320Z,96.60
2018-06-27T00:19:49.148Z,96.70
2018-06-27T00:24:42.435Z,96.90
2018-06-27T00:29:35.664Z,97.10
2018-06-27T00:34:28.884Z,97.20
2018-06-27T00:39:22.117Z,97.40
2018-06-27T00:49:08.574Z,97.70
2018-06-27T01:03:56.172Z,98.20
2018-06-27T01:08:49.443Z,98.10
2018-06-27T01:13:42.675Z,98.10
2018-06-27T01:18:35.954Z,98.30
2018-06-27T01:23:29.170Z,98.40
2018-06-27T01:28:22.410Z,98.50
2018-06-27T01:33:15.641Z,98.60
2018-06-27T01:38:08.917Z,98.80
2018-06-27T01:43:02.141Z,99.10
2018-06-27T01:47:56.410Z,99.10
2018-06-27T01:52:49.925Z,99.20
2018-06-27T01:57:43.155Z,99.30
2018-06-27T02:02:36.383Z,99.60
2018-06-27T02:07:29.614Z,99.50
2018-06-27T02:12:22.847Z,99.70
2018-06-27T02:22:09.276Z,99.80
2018-06-27T02:27:02.507Z,99.90
2018-06-27T02:31:55.744Z,99.90
2018-06-27T02:41:42.150Z,99.90
2018-06-27T02:51:28.655Z,99.90
2018-06-27T02:56:22.112Z,99.90
2018-06-27T03:01:15.366Z,99.90
2018-06-27T03:06:09.316Z,99.90
2018-06-27T03:11:02.550Z,99.90
2018-06-27T03:20:50.592Z,99.90
2018-06-27T03:25:43.818Z,99.90
2018-06-27T03:30:37.386Z,99.90
2018-06-27T03:35:30.690Z,99.90
2018-06-27T03:40:24.030Z,99.90
2018-06-27T03:45:17.341Z,99.90
2018-06-27T03:50:10.583Z,99.90
2018-06-27T03:59:57.038Z,99.90
2018-06-27T04:09:43.464Z,99.90
2018-06-27T04:14:36.781Z,99.90
2018-06-27T04:19:30.005Z,99.90
2018-06-27T04:24:24.284Z,99.90
2018-06-27T04:29:17.578Z,99.50
2018-06-27T04:34:10.834Z,99.30
2018-06-27T04:39:07.504Z,99.20
2018-06-27T04:44:01.408Z,98.40
2018-06-27T04:48:54.657Z,98.00
2018-06-27T04:53:47.873Z,94.60
2018-06-27T05:03:34.269Z,84.50
2018-06-27T05:08:27.528Z,79.80
2018-06-27T05:13:20.794Z,79.50
2018-06-27T05:18:14.046Z,78.20
2018-06-27T05:28:00.547Z,73.30
2018-06-27T05:32:53.761Z,72.20
2018-06-27T05:37:46.980Z,70.10
2018-06-27T05:42:40.245Z,67.80
2018-06-27T05:47:33.514Z,65.10
2018-06-27T05:52:26.775Z,63.70
2018-06-27T05:57:20.036Z,60.60
2018-06-27T06:07:06.497Z,59.30
2018-06-27T06:11:59.754Z,59.50
2018-06-27T06:16:53.038Z,58.00
2018-06-27T06:21:46.284Z,54.70
2018-06-27T06:26:40.438Z,54.90
2018-06-27T06:31:33.699Z,53.50
2018-06-27T06:36:26.921Z,54.30
2018-06-27T06:41:20.178Z,54.30
2018-06-27T06:46:13.487Z,51.70
2018-06-27T06:51:06.887Z,51.10
2018-06-27T06:56:00.139Z,47.50
2018-06-27T07:00:53.384Z,47.60
2018-06-27T07:05:46.655Z,49.20
2018-06-27T07:10:39.948Z,49.20
2018-06-27T07:15:33.226Z,46.80
2018-06-27T07:20:26.485Z,45.50
2018-06-27T07:25:19.747Z,43.50
2018-06-27T07:30:13.058Z,42.50
2018-06-27T07:35:07.601Z,41.50
2018-06-27T07:40:00.830Z,40.10
2018-06-27T07:44:54.092Z,40.60
2018-06-27T07:54:41.499Z,36.70
2018-06-27T07:59:34.795Z,36.00
2018-06-27T08:04:28.060Z,36.30
2018-06-27T08:09:21.277Z,35.40
2018-06-27T08:14:14.649Z,36.00
2018-06-27T08:19:07.900Z,35.60
2018-06-27T08:24:01.692Z,34.90
2018-06-27T08:28:55.214Z,35.00
2018-06-27T08:33:48.576Z,35.40
2018-06-27T08:38:43.023Z,33.50
2018-06-27T08:43:36.261Z,32.20
2018-06-27T08:48:29.530Z,33.00
2018-06-27T08:53:22.769Z,31.10
2018-06-27T08:58:16.058Z,31.20
2018-06-27T09:03:09.332Z,31.60
2018-06-27T09:08:02.567Z,32.70
2018-06-27T09:17:49.056Z,32.70
2018-06-27T09:22:42.292Z,31.20
2018-06-27T09:27:35.581Z,32.10
2018-06-27T09:32:28.826Z,31.90
2018-06-27T09:37:22.058Z,33.00
2018-06-27T09:42:15.394Z,33.20
2018-06-27T09:52:03.772Z,32.90
2018-06-27T09:56:57.276Z,33.30
2018-06-27T10:01:50.508Z,35.80
2018-06-27T10:06:43.766Z,36.90
2018-06-27T10:11:37.079Z,36.40
2018-06-27T10:16:30.373Z,37.30
2018-06-27T10:26:16.742Z,40.80
2018-06-27T10:31:10.039Z,42.10
2018-06-27T10:36:03.292Z,43.70
2018-06-27T10:40:56.518Z,44.90
2018-06-27T10:45:49.792Z,47.10
2018-06-27T10:50:42.982Z,47.90
2018-06-27T11:00:29.431Z,47.60
2018-06-27T11:05:22.783Z,48.40
2018-06-27T11:10:16.036Z,48.50
2018-06-27T11:15:09.393Z,49.40
2018-06-27T11:20:02.743Z,50.00
2018-06-27T11:29:49.297Z,50.90
2018-06-27T11:44:29.128Z,48.40
2018-06-27T11:49:22.893Z,49.00
2018-06-27T11:59:10.014Z,49.80
2018-06-27T12:04:03.492Z,49.50
2018-06-27T12:08:56.748Z,47.20
2018-06-27T12:13:50.005Z,47.30
2018-06-27T12:18:43.421Z,48.40
2018-06-27T12:23:36.784Z,49.10
2018-06-27T12:28:30.044Z,45.70
2018-06-27T12:33:23.272Z,45.00
2018-06-27T12:38:16.520Z,43.50
2018-06-27T12:43:09.902Z,43.30
2018-06-27T12:48:03.145Z,42.90
2018-06-27T12:52:56.505Z,43.30
2018-06-27T13:02:42.923Z,43.50
2018-06-27T13:07:36.166Z,41.20
2018-06-27T13:12:29.428Z,41.10
2018-06-27T13:17:23.223Z,41.30
2018-06-27T13:22:17.005Z,41.40
2018-06-27T13:27:10.248Z,41.70
2018-06-27T13:36:56.905Z,39.80
2018-06-27T13:41:50.202Z,41.30
2018-06-27T13:46:46.136Z,42.40
2018-06-27T13:51:39.428Z,43.20
2018-06-27T13:56:32.744Z,43.80
2018-06-27T14:01:26.066Z,43.50
2018-06-27T14:06:19.365Z,43.70
2018-06-27T14:11:14.048Z,43.60
2018-06-27T14:16:09.259Z,43.30
2018-06-27T14:21:02.527Z,44.80
2018-06-27T14:30:48.934Z,43.90
2018-06-27T14:35:42.163Z,44.00
2018-06-27T14:40:35.438Z,44.60
2018-06-27T14:45:28.716Z,44.20
2018-06-27T14:50:22.287Z,43.80
2018-06-27T14:55:15.582Z,44.70
2018-06-27T15:00:10.387Z,44.20
2018-06-27T15:05:04.715Z,42.60
2018-06-27T15:09:57.960Z,41.60
2018-06-27T15:14:51.170Z,42.40
2018-06-27T15:19:44.477Z,42.50
2018-06-27T15:29:30.965Z,42.80
2018-06-27T15:34:24.205Z,42.00
2018-06-27T15:44:10.972Z,41.30
2018-06-27T15:49:06.426Z,41.20
2018-06-27T15:53:59.672Z,39.70
2018-06-27T16:03:47.000Z,37.20
2018-06-27T16:08:40.352Z,36.50
2018-06-27T16:13:33.634Z,36.60
2018-06-27T16:18:26.870Z,37.60
2018-06-27T16:23:20.130Z,36.70
2018-06-27T16:42:53.088Z,39.20
2018-06-27T16:47:46.364Z,39.80
2018-06-27T16:52:39.612Z,40.30
2018-06-27T16:57:32.931Z,40.80
2018-06-27T17:02:26.391Z,41.30
2018-06-27T17:07:19.610Z,42.40
2018-06-27T17:26:52.754Z,44.60
2018-06-27T17:31:46.234Z,44.70
2018-06-27T17:36:39.514Z,44.80
2018-06-27T17:41:32.796Z,45.10
2018-06-27T17:46:26.016Z,44.80
2018-06-27T18:10:52.078Z,44.60
2018-06-27T18:20:39.070Z,45.60
2018-06-27T18:25:32.381Z,46.00
2018-06-27T18:30:25.631Z,46.50
2018-06-27T18:35:18.968Z,46.60
2018-06-27T18:45:06.461Z,48.20
2018-06-27T18:50:01.357Z,48.80
2018-06-27T18:54:54.679Z,49.30
2018-06-27T18:59:48.027Z,49.80
2018-06-27T19:04:41.342Z,49.60
2018-06-27T19:09:34.700Z,49.60
2018-06-27T19:14:27.983Z,49.80
2018-06-27T19:19:21.904Z,50.40
2018-06-27T19:24:15.970Z,50.60
2018-06-27T19:29:09.872Z,51.10
2018-06-27T19:34:03.257Z,51.70
2018-06-27T19:38:56.626Z,52.10
2018-06-27T19:43:51.437Z,52.70
2018-06-27T19:48:44.874Z,53.30
2018-06-27T19:53:38.144Z,53.60
2018-06-27T19:58:31.909Z,54.20
2018-06-27T20:08:18.286Z,55.10
2018-06-27T20:13:11.655Z,55.30
2018-06-27T20:18:05.204Z,55.60
2018-06-27T20:22:58.516Z,55.80
2018-06-27T20:27:51.967Z,56.20
2018-06-27T20:32:45.332Z,56.80
2018-06-27T20:37:39.328Z,57.30
2018-06-27T20:42:32.586Z,57.80
2018-06-27T20:47:25.902Z,58.20
2018-06-27T21:02:06.255Z,60.10
2018-06-27T21:06:59.594Z,60.70
2018-06-27T21:11:52.912Z,60.70
2018-06-27T21:16:46.247Z,61.10
2018-06-27T21:21:39.624Z,61.30
2018-06-27T21:26:33.631Z,61.30
2018-06-27T21:41:13.315Z,62.60
2018-06-27T21:46:06.616Z,63.10
2018-06-27T21:55:53.364Z,63.60
2018-06-27T22:00:46.634Z,63.70
2018-06-27T22:05:39.995Z,64.40
2018-06-27T22:10:33.240Z,64.80
2018-06-27T22:15:27.210Z,65.00
2018-06-27T22:20:20.525Z,64.10
2018-06-27T22:25:13.995Z,64.00
2018-06-27T22:30:07.440Z,64.40
2018-06-27T22:39:53.950Z,64.30
2018-06-27T22:44:47.223Z,63.60
2018-06-27T22:49:40.506Z,63.80
2018-06-27T22:54:33.754Z,64.10
2018-06-27T22:59:27.006Z,64.60
2018-06-27T23:04:20.897Z,64.90
2018-06-27T23:09:14.149Z,65.10
2018-06-27T23:19:00.866Z,65.70
2018-06-27T23:23:54.232Z,66.10
2018-06-27T23:28:47.582Z,66.40
2018-06-27T23:33:40.802Z,66.80
2018-06-27T23:38:34.182Z,67.20
2018-06-27T23:43:27.500Z,67.60
2018-06-27T23:48:20.845Z,68.20
2018-06-27T23:53:14.102Z,68.70
2018-06-27T23:58:07.500Z,69.70
